Capitol Logistics 798


SCEL
Arturo Merino Benitez International Airport
Santiago, CL
KMIA
Miami International Airport
Miami, US

Activity Log

Date Flight Route Aircraft Duration
09/30/2020 CPX798 IKBIX Y183 PEAKY DVALL CURSO5 B77L 8h 19m
01/02/2020 CPX798 IKBIX Y183 PEAKY DVALL CURSO5 B744 8h 14m
10/27/2019 CPX798 IKBIX Y183 PEAKY DVALL CURSO5 B744 8h 50m

Route Details

Aircraft Information
Primary: Boeing 747-400BCF
Backup: Boeing 777-200LRF
Route Data
Distance: 3625nm
Sched. Duration: 7h 40m
Avg. Duration: 8h 27m (+88m)
Times Flown: 3
Recm'd Route: IKBIX Y183 PEAKY DVALL CURSO5
Planned Altitude: 32,000ft
Origin Wx: SCEL 271800Z 13009KT 9999 BKN140 14/03 Q1018 NOSIG
Dest. Wx: KMIA 271753Z 10013KT 10SM SCT030 SCT250 31/22 A3004 RMK AO2 SLP173 T03110217 10317 20272 58013
Notes:

Financial History
Total Freight: 617,788lbs
Average Load: 205,929lbs/flt
Fuel Used: 556,737lbs
Avg. Fuel Used: 185,579lbs/flt
Fuel Expense: $445,390
Avg. Fuel Expense: $148,463
Avg. Fuel Cost: $0.80/lbs
Total Gross Income: $1,773,447
Pilot Pay: $717
Total Expenses: $191,688
Total Revenue: $1,130,071
Average Revenue: $591,148.98